Time;durP1;ratioP1;P1;durP2;ratioP2;P2;SDS_P1;SDS_P2;PMS_P1;PMS_P2;Temp;Humidity;BMP_temperature;BMP_pressure;BME280_temperature;BME280_humidity;BME280_pressure;Samples;Min_cycle;Max_cycle;Signal;HPM_P1;HPM_P2
2022/03/27 00:01:34;;;;;;;;;;;13.10;74.60;;;;;;5059413;28;19920;-67
2022/03/27 00:04:00;;;;;;;;;;;13.10;74.90;;;;;;5058165;28;19999;-67
2022/03/27 00:06:25;;;;;;;;;;;13.00;74.70;;;;;;5056635;28;20038;-66
2022/03/27 00:08:51;;;;;;;;;;;12.90;74.70;;;;;;5038119;28;19943;-67
2022/03/27 00:11:26;;;;;;;;;;;12.90;74.50;;;;;;5055872;28;19986;-67
2022/03/27 00:13:52;;;;;;;;;;;12.90;74.90;;;;;;5055678;28;20268;-67
2022/03/27 00:16:18;;;;;;;;;;;12.80;74.30;;;;;;5054560;28;19908;-66
2022/03/27 00:18:43;;;;;;;;;;;12.70;74.30;;;;;;5058303;28;20369;-67
2022/03/27 00:21:10;;;;;;;;;;;12.70;74.20;;;;;;5057645;28;19912;-66
2022/03/27 00:23:35;;;;;;;;;;;12.70;74.20;;;;;;5054106;28;20004;-67
2022/03/27 00:26:02;;;;;;;;;;;12.60;74.50;;;;;;5059957;28;20426;-66
2022/03/27 00:28:32;;;;;;;;;;;12.60;74.60;;;;;;5069862;28;19943;-67
2022/03/27 00:31:01;;;;;;;;;;;12.50;74.50;;;;;;5041330;28;19917;-66
2022/03/27 00:33:27;;;;;;;;;;;12.50;74.50;;;;;;5050672;28;19909;-67
2022/03/27 00:35:55;;;;;;;;;;;12.40;74.70;;;;;;5060806;28;19909;-66
2022/03/27 00:38:21;;;;;;;;;;;12.40;74.80;;;;;;5039680;28;20333;-66
2022/03/27 00:40:47;;;;;;;;;;;12.30;74.70;;;;;;5054222;28;19996;-66
2022/03/27 00:43:12;;;;;;;;;;;12.30;74.80;;;;;;5043910;28;19916;-66
2022/03/27 00:45:38;;;;;;;;;;;12.30;75.00;;;;;;5058384;28;19920;-66
2022/03/27 00:48:03;;;;;;;;;;;12.20;74.90;;;;;;5055738;28;19920;-67
2022/03/27 00:50:30;;;;;;;;;;;12.20;75.00;;;;;;5039055;28;19917;-66
2022/03/27 00:52:57;;;;;;;;;;;12.10;75.00;;;;;;5063522;28;19962;-66
2022/03/27 00:55:22;;;;;;;;;;;12.10;75.20;;;;;;5060983;28;20514;-67
2022/03/27 00:57:48;;;;;;;;;;;12.10;75.20;;;;;;5057821;28;19919;-66
2022/03/27 01:00:45;;;;;;;;;;;12.00;75.10;;;;;;5061286;28;19916;-66
2022/03/27 01:03:12;;;;;;;;;;;12.00;75.10;;;;;;5061929;28;19985;-66
2022/03/27 01:05:41;;;;;;;;;;;11.90;75.20;;;;;;5060202;28;20240;-66
2022/03/27 01:08:08;;;;;;;;;;;11.90;75.10;;;;;;5055302;28;19908;-66
2022/03/27 01:10:34;;;;;;;;;;;11.90;75.30;;;;;;5063541;28;19928;-66
2022/03/27 01:13:02;;;;;;;;;;;11.80;75.60;;;;;;5060358;28;20401;-67
2022/03/27 01:15:33;;;;;;;;;;;11.80;75.50;;;;;;5057173;28;19939;-66
2022/03/27 01:17:59;;;;;;;;;;;11.70;75.40;;;;;;5059074;28;19935;-66
2022/03/27 01:20:39;;;;;;;;;;;11.70;75.60;;;;;;5037580;28;20427;-66
2022/03/27 01:23:07;;;;;;;;;;;11.70;75.70;;;;;;5053583;28;19916;-67
2022/03/27 01:25:33;;;;;;;;;;;11.70;75.70;;;;;;5061281;28;19909;-66
2022/03/27 01:27:59;;;;;;;;;;;11.60;75.70;;;;;;5063690;28;20409;-66
2022/03/27 01:30:24;;;;;;;;;;;11.60;76.00;;;;;;5061970;28;19991;-67
2022/03/27 01:32:51;;;;;;;;;;;11.60;75.80;;;;;;5053611;28;19919;-67
2022/03/27 01:35:17;;;;;;;;;;;11.50;76.00;;;;;;5061002;28;19927;-66
2022/03/27 01:37:42;;;;;;;;;;;11.50;76.00;;;;;;5060632;28;20003;-66
2022/03/27 01:40:08;;;;;;;;;;;11.50;76.50;;;;;;5055410;28;20370;-67
2022/03/27 01:42:33;;;;;;;;;;;11.40;76.20;;;;;;5051285;28;19991;-66
2022/03/27 01:44:59;;;;;;;;;;;11.40;76.20;;;;;;5062878;28;20440;-66
2022/03/27 01:47:25;;;;;;;;;;;11.40;77.00;;;;;;5063355;28;19921;-67
2022/03/27 01:49:50;;;;;;;;;;;11.30;76.50;;;;;;5058271;28;19944;-66
2022/03/27 01:52:16;;;;;;;;;;;11.30;76.60;;;;;;5057735;28;19913;-67
2022/03/27 01:54:41;;;;;;;;;;;11.20;76.60;;;;;;5067788;28;19909;-66
2022/03/27 01:57:07;;;;;;;;;;;11.20;76.70;;;;;;5058796;28;19909;-66
2022/03/27 01:59:33;;;;;;;;;;;11.20;76.90;;;;;;5056126;28;20280;-66
2022/03/27 02:01:59;;;;;;;;;;;11.20;76.80;;;;;;5066060;28;19919;-67
2022/03/27 02:04:25;;;;;;;;;;;11.10;77.20;;;;;;5056990;28;19920;-66
2022/03/27 02:06:50;;;;;;;;;;;11.10;76.90;;;;;;5057265;28;20046;-66
2022/03/27 02:09:16;;;;;;;;;;;11.10;77.20;;;;;;5054801;28;19915;-67
2022/03/27 02:11:42;;;;;;;;;;;11.10;77.40;;;;;;5063849;28;19913;-66
2022/03/27 02:14:09;;;;;;;;;;;11.00;77.60;;;;;;5058761;28;19916;-66
2022/03/27 02:16:35;;;;;;;;;;;11.00;77.90;;;;;;5053091;28;20454;-66
2022/03/27 02:19:00;;;;;;;;;;;11.00;77.80;;;;;;5048416;28;19913;-66
2022/03/27 02:21:26;;;;;;;;;;;11.00;77.90;;;;;;5061685;28;19990;-66
2022/03/27 02:23:51;;;;;;;;;;;10.90;78.00;;;;;;5056529;28;20026;-66
2022/03/27 02:26:17;;;;;;;;;;;10.90;78.20;;;;;;5052220;28;20689;-66
2022/03/27 02:28:42;;;;;;;;;;;10.90;78.40;;;;;;5064179;28;19983;-66
2022/03/27 02:31:08;;;;;;;;;;;10.80;78.30;;;;;;5041231;28;19929;-66
2022/03/27 02:33:35;;;;;;;;;;;10.80;78.70;;;;;;5055958;28;20625;-66
2022/03/27 02:36:01;;;;;;;;;;;10.80;78.60;;;;;;5054195;28;19913;-66
2022/03/27 02:38:27;;;;;;;;;;;10.80;78.30;;;;;;5044892;28;20316;-66
2022/03/27 02:40:52;;;;;;;;;;;10.70;78.60;;;;;;5055294;28;19923;-66
2022/03/27 02:43:18;;;;;;;;;;;10.70;78.70;;;;;;5049744;28;20470;-66
2022/03/27 02:45:43;;;;;;;;;;;10.70;79.00;;;;;;5055333;28;19917;-66
2022/03/27 02:48:09;;;;;;;;;;;10.70;78.80;;;;;;5059263;28;19924;-66
2022/03/27 02:50:37;;;;;;;;;;;10.70;79.00;;;;;;5053339;28;19920;-66
2022/03/27 02:53:02;;;;;;;;;;;10.60;79.10;;;;;;5050700;28;20532;-67
2022/03/27 02:55:28;;;;;;;;;;;10.60;79.20;;;;;;5062392;28;19917;-66
2022/03/27 02:57:53;;;;;;;;;;;10.60;79.30;;;;;;5058225;28;20652;-66
2022/03/27 03:00:19;;;;;;;;;;;10.60;79.10;;;;;;5053280;28;19912;-66
2022/03/27 03:02:45;;;;;;;;;;;10.60;79.20;;;;;;5052543;28;19912;-66
2022/03/27 03:05:11;;;;;;;;;;;10.60;79.40;;;;;;5038203;28;20332;-66
2022/03/27 03:07:42;;;;;;;;;;;10.50;79.20;;;;;;5055658;28;20385;-66
2022/03/27 03:10:09;;;;;;;;;;;10.60;79.30;;;;;;5051719;28;19924;-66
2022/03/27 03:12:34;;;;;;;;;;;10.50;79.20;;;;;;5058349;28;20264;-66
2022/03/27 03:15:00;;;;;;;;;;;10.50;79.30;;;;;;5055604;28;20007;-66
2022/03/27 03:17:25;;;;;;;;;;;10.50;79.10;;;;;;5033963;28;20393;-66
2022/03/27 03:19:51;;;;;;;;;;;10.50;79.30;;;;;;5056838;28;19908;-66
2022/03/27 03:22:17;;;;;;;;;;;10.50;79.60;;;;;;5060757;28;20345;-66
2022/03/27 03:24:43;;;;;;;;;;;10.50;79.40;;;;;;5054840;28;19916;-66
2022/03/27 03:27:08;;;;;;;;;;;10.50;79.50;;;;;;5053217;28;19923;-66
2022/03/27 03:29:33;;;;;;;;;;;10.50;79.60;;;;;;5063262;28;20596;-66
2022/03/27 03:31:59;;;;;;;;;;;10.50;79.40;;;;;;5053448;28;20083;-66
2022/03/27 03:34:24;;;;;;;;;;;10.50;80.10;;;;;;5051515;28;19939;-66
2022/03/27 03:36:50;;;;;;;;;;;10.50;79.50;;;;;;5052708;28;19947;-66
2022/03/27 03:39:16;;;;;;;;;;;10.50;79.60;;;;;;5031848;28;19912;-66
2022/03/27 03:41:41;;;;;;;;;;;10.50;79.50;;;;;;5054100;28;19966;-66
2022/03/27 03:44:07;;;;;;;;;;;10.50;79.10;;;;;;5053385;28;20024;-66
2022/03/27 03:46:33;;;;;;;;;;;10.50;79.30;;;;;;5037786;28;19924;-67
2022/03/27 03:48:59;;;;;;;;;;;10.50;79.20;;;;;;5057896;28;20347;-66
2022/03/27 03:51:24;;;;;;;;;;;10.50;79.50;;;;;;5053507;28;19970;-66
2022/03/27 03:53:50;;;;;;;;;;;10.40;79.70;;;;;;5048990;28;19913;-66
2022/03/27 03:56:15;;;;;;;;;;;10.40;79.40;;;;;;5048930;28;19916;-66
2022/03/27 03:58:41;;;;;;;;;;;10.40;79.30;;;;;;5055177;28;19955;-66
2022/03/27 04:01:07;;;;;;;;;;;10.40;79.60;;;;;;5053594;28;19917;-66
2022/03/27 04:03:32;;;;;;;;;;;10.40;79.60;;;;;;5059204;28;19909;-66
2022/03/27 04:05:58;;;;;;;;;;;10.40;79.40;;;;;;5059764;28;19913;-66
2022/03/27 04:08:24;;;;;;;;;;;10.40;79.40;;;;;;5059420;28;20480;-66
2022/03/27 04:10:49;;;;;;;;;;;10.40;79.80;;;;;;5052577;28;19917;-66
2022/03/27 04:13:15;;;;;;;;;;;10.40;79.40;;;;;;5059356;28;19912;-66
2022/03/27 04:15:40;;;;;;;;;;;10.40;79.90;;;;;;5057474;28;19919;-66
2022/03/27 04:18:06;;;;;;;;;;;10.40;79.70;;;;;;5052940;28;20560;-66
2022/03/27 04:20:32;;;;;;;;;;;10.40;79.50;;;;;;5058053;28;20009;-66
2022/03/27 04:22:58;;;;;;;;;;;10.40;79.60;;;;;;5060409;28;19936;-66
2022/03/27 04:25:23;;;;;;;;;;;10.40;79.50;;;;;;5049918;28;20373;-66
2022/03/27 04:27:49;;;;;;;;;;;10.40;79.70;;;;;;5051255;28;19912;-67
2022/03/27 04:30:14;;;;;;;;;;;10.40;79.60;;;;;;5057779;28;19928;-66
2022/03/27 04:32:40;;;;;;;;;;;10.40;79.80;;;;;;5069277;28;20476;-66
2022/03/27 04:35:06;;;;;;;;;;;10.40;79.90;;;;;;5051989;28;19913;-66
2022/03/27 04:37:37;;;;;;;;;;;10.40;79.70;;;;;;5056538;28;19909;-66
2022/03/27 04:40:03;;;;;;;;;;;10.30;80.00;;;;;;5061282;28;20432;-66
2022/03/27 04:42:29;;;;;;;;;;;10.40;79.60;;;;;;5053700;28;19944;-66
2022/03/27 04:44:55;;;;;;;;;;;10.40;79.90;;;;;;5030376;28;19913;-66
2022/03/27 04:47:21;;;;;;;;;;;10.30;79.40;;;;;;5056540;28;19913;-66
2022/03/27 04:49:46;;;;;;;;;;;10.30;80.00;;;;;;5060121;28;19916;-66
2022/03/27 04:52:12;;;;;;;;;;;10.30;80.30;;;;;;5054875;28;19970;-66
2022/03/27 04:54:38;;;;;;;;;;;10.30;79.70;;;;;;5036504;28;19917;-66
2022/03/27 04:57:03;;;;;;;;;;;10.30;79.50;;;;;;5061001;28;20639;-66
2022/03/27 04:59:29;;;;;;;;;;;10.30;79.60;;;;;;5055772;28;19999;-66
2022/03/27 05:01:56;;;;;;;;;;;10.30;79.80;;;;;;5051992;28;19913;-66
2022/03/27 05:04:21;;;;;;;;;;;10.30;79.70;;;;;;5059506;28;19978;-66
2022/03/27 05:06:47;;;;;;;;;;;10.30;79.90;;;;;;5060941;28;20487;-66
2022/03/27 05:09:13;;;;;;;;;;;10.30;80.00;;;;;;5058907;28;19915;-66
2022/03/27 05:11:38;;;;;;;;;;;10.30;80.10;;;;;;5052543;28;19916;-66
2022/03/27 05:14:04;;;;;;;;;;;10.30;79.80;;;;;;5059367;28;19946;-66
2022/03/27 05:16:29;;;;;;;;;;;10.30;79.60;;;;;;5035883;28;19956;-66
2022/03/27 05:18:55;;;;;;;;;;;10.30;79.80;;;;;;5052576;28;19952;-66
2022/03/27 05:21:21;;;;;;;;;;;10.30;79.70;;;;;;5060553;28;19913;-66
2022/03/27 05:23:46;;;;;;;;;;;10.30;80.10;;;;;;5038996;28;19939;-66
2022/03/27 05:26:12;;;;;;;;;;;10.30;79.70;;;;;;5058020;28;19909;-66
2022/03/27 05:28:38;;;;;;;;;;;10.30;80.10;;;;;;5057286;28;19916;-66
2022/03/27 05:31:08;;;;;;;;;;;10.20;79.80;;;;;;5044993;28;19913;-66
2022/03/27 05:33:35;;;;;;;;;;;10.20;80.50;;;;;;5057135;28;19956;-67
2022/03/27 05:36:01;;;;;;;;;;;10.20;80.20;;;;;;5055817;28;19954;-66
2022/03/27 05:38:26;;;;;;;;;;;10.30;80.50;;;;;;5062676;28;19913;-67
2022/03/27 05:40:52;;;;;;;;;;;10.20;79.90;;;;;;5061800;28;20248;-66
2022/03/27 05:43:17;;;;;;;;;;;10.20;79.90;;;;;;5039279;28;19916;-66
2022/03/27 05:45:42;;;;;;;;;;;10.20;79.60;;;;;;5059520;28;19909;-66
2022/03/27 05:48:08;;;;;;;;;;;10.20;79.60;;;;;;5062811;28;19916;-66
2022/03/27 05:50:34;;;;;;;;;;;10.20;79.40;;;;;;5057817;28;20003;-66
2022/03/27 05:52:59;;;;;;;;;;;10.20;79.70;;;;;;5031920;28;19913;-66
2022/03/27 05:55:25;;;;;;;;;;;10.20;79.80;;;;;;5061313;28;19909;-66
2022/03/27 05:57:50;;;;;;;;;;;10.20;79.60;;;;;;5060051;28;20054;-66
2022/03/27 06:00:20;;;;;;;;;;;10.20;79.90;;;;;;5039075;28;20357;-66
2022/03/27 06:02:46;;;;;;;;;;;10.20;79.70;;;;;;5059167;28;20061;-67
2022/03/27 06:05:11;;;;;;;;;;;10.20;79.50;;;;;;5056448;28;19999;-66
2022/03/27 06:07:43;;;;;;;;;;;10.20;79.90;;;;;;5060198;28;19909;-66
2022/03/27 06:10:09;;;;;;;;;;;10.20;79.90;;;;;;5056729;28;19985;-66
2022/03/27 06:12:34;;;;;;;;;;;10.20;79.70;;;;;;5058723;28;19912;-66
2022/03/27 06:14:59;;;;;;;;;;;10.20;79.80;;;;;;5059175;28;19916;-66
2022/03/27 06:17:25;;;;;;;;;;;10.20;79.50;;;;;;5059963;28;19925;-66
2022/03/27 06:19:50;;;;;;;;;;;10.20;79.80;;;;;;5054519;28;19916;-67
2022/03/27 06:22:16;;;;;;;;;;;10.20;79.60;;;;;;5060790;28;19908;-66
2022/03/27 06:24:41;;;;;;;;;;;10.20;79.90;;;;;;5059673;28;20738;-68
2022/03/27 06:27:07;;;;;;;;;;;10.20;80.20;;;;;;5058671;28;19909;-66
2022/03/27 06:29:33;;;;;;;;;;;10.20;79.60;;;;;;5061698;28;19954;-67
2022/03/27 06:31:58;;;;;;;;;;;10.20;79.80;;;;;;5053677;28;19916;-66
2022/03/27 06:34:26;;;;;;;;;;;10.20;79.70;;;;;;5059960;28;19923;-66
2022/03/27 06:36:51;;;;;;;;;;;10.20;80.00;;;;;;5043959;28;20007;-66
2022/03/27 06:39:17;;;;;;;;;;;10.20;79.80;;;;;;5058967;28;20008;-67
2022/03/27 06:41:42;;;;;;;;;;;10.20;79.70;;;;;;5040426;28;20412;-66
2022/03/27 06:44:08;;;;;;;;;;;10.20;79.80;;;;;;5059165;28;19916;-66
2022/03/27 06:46:34;;;;;;;;;;;10.20;79.50;;;;;;5061690;28;19913;-66
2022/03/27 06:48:59;;;;;;;;;;;10.20;79.40;;;;;;5037778;28;19960;-66
2022/03/27 06:51:25;;;;;;;;;;;10.20;79.60;;;;;;5063296;28;19927;-66
2022/03/27 06:53:50;;;;;;;;;;;10.20;79.20;;;;;;5056407;28;19909;-66
2022/03/27 06:56:16;;;;;;;;;;;10.20;79.20;;;;;;5062425;28;19935;-66
2022/03/27 06:58:41;;;;;;;;;;;10.20;79.30;;;;;;5055324;28;19958;-66
2022/03/27 07:03:51;;;;;;;;;;;10.20;79.20;;;;;;5056756;28;19923;-66
2022/03/27 07:06:19;;;;;;;;;;;10.30;79.30;;;;;;5056829;28;19935;-66
2022/03/27 07:08:45;;;;;;;;;;;10.20;79.30;;;;;;5053653;28;20258;-66
2022/03/27 07:11:10;;;;;;;;;;;10.30;79.30;;;;;;5060618;28;20015;-66
2022/03/27 07:13:36;;;;;;;;;;;10.30;79.00;;;;;;5041191;28;19917;-66
2022/03/27 07:16:02;;;;;;;;;;;10.30;79.60;;;;;;5054585;28;20368;-66
2022/03/27 07:18:28;;;;;;;;;;;10.30;79.40;;;;;;5061114;28;19920;-66
2022/03/27 07:20:54;;;;;;;;;;;10.30;79.30;;;;;;5055831;28;19936;-66
2022/03/27 07:23:20;;;;;;;;;;;10.30;79.10;;;;;;5057155;28;20430;-66
2022/03/27 07:25:50;;;;;;;;;;;10.30;79.50;;;;;;5057416;28;20004;-66
2022/03/27 07:28:16;;;;;;;;;;;10.30;79.20;;;;;;5038268;28;20387;-66
2022/03/27 07:30:42;;;;;;;;;;;10.30;79.10;;;;;;5043320;28;19972;-66
2022/03/27 07:33:08;;;;;;;;;;;10.40;79.00;;;;;;5053711;28;19991;-66
2022/03/27 07:35:34;;;;;;;;;;;10.40;79.20;;;;;;5057765;28;20631;-66
2022/03/27 07:38:00;;;;;;;;;;;10.40;79.00;;;;;;5038599;28;20600;-66
2022/03/27 07:40:27;;;;;;;;;;;10.40;79.10;;;;;;5052458;28;20345;-66
2022/03/27 07:42:54;;;;;;;;;;;10.40;78.40;;;;;;5056581;28;20457;-66
2022/03/27 07:45:22;;;;;;;;;;;10.50;78.70;;;;;;5059553;28;19912;-66
2022/03/27 07:47:49;;;;;;;;;;;10.50;79.00;;;;;;5059025;28;19924;-66
2022/03/27 07:50:14;;;;;;;;;;;10.50;79.00;;;;;;5055055;28;19916;-66
2022/03/27 07:52:40;;;;;;;;;;;10.50;79.00;;;;;;5034201;28;19912;-66
2022/03/27 07:55:06;;;;;;;;;;;10.50;79.20;;;;;;5060165;28;20381;-66
2022/03/27 07:57:32;;;;;;;;;;;10.60;78.90;;;;;;5056541;28;20231;-66
2022/03/27 07:59:58;;;;;;;;;;;10.60;78.90;;;;;;5052164;28;19928;-66
2022/03/27 08:02:23;;;;;;;;;;;10.60;78.80;;;;;;5058520;28;19912;-66
2022/03/27 08:04:49;;;;;;;;;;;10.70;79.00;;;;;;5058006;28;19912;-66
2022/03/27 08:07:14;;;;;;;;;;;10.70;78.90;;;;;;5053884;28;19970;-66
2022/03/27 08:09:40;;;;;;;;;;;10.70;78.50;;;;;;5057911;28;19924;-66
2022/03/27 08:12:09;;;;;;;;;;;10.70;78.80;;;;;;5061975;28;19967;-66
2022/03/27 08:14:35;;;;;;;;;;;10.80;79.40;;;;;;5041909;28;19916;-66
2022/03/27 08:17:01;;;;;;;;;;;10.80;78.90;;;;;;5051873;28;19908;-66
2022/03/27 08:19:27;;;;;;;;;;;10.90;78.60;;;;;;5057890;28;20394;-66
2022/03/27 08:21:53;;;;;;;;;;;10.90;78.50;;;;;;5061799;28;19917;-66
2022/03/27 08:24:19;;;;;;;;;;;10.90;78.30;;;;;;5054913;28;20640;-66
2022/03/27 08:26:56;;;;;;;;;;;10.90;78.90;;;;;;5048217;28;19913;-66
2022/03/27 08:29:44;;;;;;;;;;;11.00;78.70;;;;;;5062255;28;19916;-66
2022/03/27 08:32:12;;;;;;;;;;;11.00;78.60;;;;;;5053639;28;19916;-66
2022/03/27 08:34:39;;;;;;;;;;;11.00;78.70;;;;;;5052009;28;19920;-66
2022/03/27 08:37:07;;;;;;;;;;;11.00;78.50;;;;;;5047474;28;20410;-66
2022/03/27 08:39:32;;;;;;;;;;;11.00;78.80;;;;;;5060819;28;19909;-66
2022/03/27 08:41:58;;;;;;;;;;;11.10;78.80;;;;;;5054194;28;19924;-66
2022/03/27 08:44:24;;;;;;;;;;;11.10;78.70;;;;;;5053008;28;19912;-66
2022/03/27 08:46:51;;;;;;;;;;;11.10;78.60;;;;;;5061162;28;19913;-66
2022/03/27 08:49:25;;;;;;;;;;;11.20;78.50;;;;;;5055252;28;19917;-66
2022/03/27 08:52:08;;;;;;;;;;;11.20;78.50;;;;;;5054846;28;19936;-66
2022/03/27 08:55:00;;;;;;;;;;;11.20;78.60;;;;;;5060781;28;19985;-66
2022/03/27 08:57:52;;;;;;;;;;;11.30;78.50;;;;;;5054917;28;19909;-66
2022/03/27 09:00:21;;;;;;;;;;;11.30;78.40;;;;;;5042707;28;19917;-66
2022/03/27 09:02:47;;;;;;;;;;;11.40;78.30;;;;;;5057787;28;19920;-66
2022/03/27 09:05:13;;;;;;;;;;;11.40;78.20;;;;;;5063963;28;19947;-66
2022/03/27 09:07:39;;;;;;;;;;;11.50;78.00;;;;;;5057085;28;19916;-66
2022/03/27 09:10:07;;;;;;;;;;;11.50;78.10;;;;;;5055134;28;20305;-66
2022/03/27 09:12:33;;;;;;;;;;;11.50;77.90;;;;;;5055851;28;19932;-66
2022/03/27 09:14:59;;;;;;;;;;;11.50;77.60;;;;;;5076608;28;20381;-66
2022/03/27 09:17:24;;;;;;;;;;;11.60;77.50;;;;;;5056593;28;19932;-66
2022/03/27 09:19:51;;;;;;;;;;;11.70;77.60;;;;;;5054437;28;19912;-66
2022/03/27 09:22:16;;;;;;;;;;;11.70;77.40;;;;;;5063394;28;19908;-66
2022/03/27 09:24:47;;;;;;;;;;;11.70;77.40;;;;;;5058016;28;19939;-66
2022/03/27 09:27:16;;;;;;;;;;;11.70;77.20;;;;;;5054437;28;19951;-67
2022/03/27 09:29:59;;;;;;;;;;;11.80;77.10;;;;;;5054498;28;19983;-66
2022/03/27 09:32:32;;;;;;;;;;;11.80;77.10;;;;;;5057457;28;19947;-66
2022/03/27 09:34:59;;;;;;;;;;;11.90;77.00;;;;;;5054600;28;19908;-66
2022/03/27 09:37:29;;;;;;;;;;;11.90;76.80;;;;;;5034462;28;20006;-66
2022/03/27 09:39:57;;;;;;;;;;;12.00;76.70;;;;;;5039750;28;19962;-66
2022/03/27 09:42:24;;;;;;;;;;;12.10;76.90;;;;;;5058189;28;19923;-66
2022/03/27 09:45:08;;;;;;;;;;;12.10;76.80;;;;;;5054192;28;19999;-66
2022/03/27 09:47:33;;;;;;;;;;;12.10;76.60;;;;;;5040604;28;19912;-66
2022/03/27 09:49:59;;;;;;;;;;;12.20;76.70;;;;;;5041572;28;19912;-66
2022/03/27 09:52:24;;;;;;;;;;;12.20;76.70;;;;;;5053871;28;19912;-66
2022/03/27 09:54:57;;;;;;;;;;;12.30;76.70;;;;;;5060138;28;19913;-67
2022/03/27 09:57:24;;;;;;;;;;;12.30;76.30;;;;;;5035767;28;20591;-66
2022/03/27 09:59:50;;;;;;;;;;;12.40;76.40;;;;;;5051052;28;19975;-66
2022/03/27 10:02:20;;;;;;;;;;;12.40;76.20;;;;;;5037073;28;19917;-66
2022/03/27 10:05:05;;;;;;;;;;;12.50;76.10;;;;;;5040595;28;20805;-66
2022/03/27 10:07:36;;;;;;;;;;;12.50;76.00;;;;;;5058457;28;19980;-66
2022/03/27 10:10:03;;;;;;;;;;;12.60;75.80;;;;;;5039590;28;19981;-66
2022/03/27 10:12:30;;;;;;;;;;;12.70;75.60;;;;;;5054276;28;19982;-66
2022/03/27 10:14:57;;;;;;;;;;;12.70;75.70;;;;;;5063322;28;19971;-67
2022/03/27 10:17:25;;;;;;;;;;;12.80;75.60;;;;;;5053693;28;19912;-67
2022/03/27 10:19:52;;;;;;;;;;;12.80;75.70;;;;;;5053669;28;20038;-66
2022/03/27 10:22:20;;;;;;;;;;;12.90;75.60;;;;;;5062594;28;20060;-66
2022/03/27 10:24:47;;;;;;;;;;;12.90;75.70;;;;;;5056274;28;20318;-67
2022/03/27 10:27:13;;;;;;;;;;;12.90;75.70;;;;;;5053387;28;19915;-67
2022/03/27 10:29:39;;;;;;;;;;;12.90;76.10;;;;;;5038330;28;20369;-67
2022/03/27 10:32:09;;;;;;;;;;;13.00;76.50;;;;;;5058102;28;19925;-66
2022/03/27 10:34:36;;;;;;;;;;;12.90;75.70;;;;;;5053860;28;19979;-67
2022/03/27 10:37:10;;;;;;;;;;;13.00;75.60;;;;;;5053786;28;19917;-66
2022/03/27 10:39:44;;;;;;;;;;;13.00;75.70;;;;;;5056830;28;19917;-66
2022/03/27 10:42:19;;;;;;;;;;;13.10;75.80;;;;;;5058162;28;19912;-66
2022/03/27 10:44:51;;;;;;;;;;;13.10;75.70;;;;;;5052411;28;20189;-67
2022/03/27 10:47:17;;;;;;;;;;;13.20;75.60;;;;;;5053129;28;20521;-66
2022/03/27 10:50:05;;;;;;;;;;;13.20;75.40;;;;;;5033906;28;19913;-67
2022/03/27 10:52:32;;;;;;;;;;;13.30;75.30;;;;;;5053392;28;20024;-66
2022/03/27 10:55:06;;;;;;;;;;;13.30;75.20;;;;;;5059750;28;20010;-66
2022/03/27 10:57:33;;;;;;;;;;;13.40;75.20;;;;;;5062858;28;19939;-66
2022/03/27 10:59:59;;;;;;;;;;;13.50;75.00;;;;;;5052207;28;19922;-66
2022/03/27 11:02:44;;;;;;;;;;;13.60;74.90;;;;;;5051111;28;20003;-67
2022/03/27 11:05:36;;;;;;;;;;;13.70;74.80;;;;;;5061219;28;19912;-66
2022/03/27 11:08:16;;;;;;;;;;;13.80;74.50;;;;;;5026117;28;19920;-67
2022/03/27 11:10:49;;;;;;;;;;;13.90;74.30;;;;;;5051175;28;19931;-67
2022/03/27 11:13:27;;;;;;;;;;;14.00;74.20;;;;;;5061742;28;19920;-66
2022/03/27 11:16:11;;;;;;;;;;;14.10;73.90;;;;;;5072203;28;19909;-66
2022/03/27 11:18:37;;;;;;;;;;;14.20;73.90;;;;;;5050947;28;19913;-67
2022/03/27 11:21:04;;;;;;;;;;;14.40;73.90;;;;;;5038974;28;19951;-67
2022/03/27 11:23:31;;;;;;;;;;;14.50;73.60;;;;;;5056670;28;20364;-67
2022/03/27 11:25:58;;;;;;;;;;;14.60;73.40;;;;;;5059201;28;20377;-67
2022/03/27 11:28:23;;;;;;;;;;;14.70;73.20;;;;;;5055354;28;19908;-67
2022/03/27 11:30:52;;;;;;;;;;;14.80;73.10;;;;;;5059233;28;19963;-67
2022/03/27 11:33:19;;;;;;;;;;;14.80;72.80;;;;;;5060923;28;19913;-67
2022/03/27 11:36:04;;;;;;;;;;;;;;;;;;;;;
2022/03/27 11:38:32;;;;;;;;;;;15.00;72.60;;;;;;5060295;28;19912;-67
2022/03/27 11:41:17;;;;;;;;;;;15.10;72.10;;;;;;5060508;28;19913;-67
2022/03/27 11:43:43;;;;;;;;;;;15.20;72.30;;;;;;5054018;28;19939;-67
2022/03/27 11:46:09;;;;;;;;;;;15.20;72.70;;;;;;5054691;28;19912;-67
2022/03/27 11:48:35;;;;;;;;;;;15.30;72.20;;;;;;5045225;28;19927;-67
2022/03/27 11:51:00;;;;;;;;;;;15.40;71.80;;;;;;5061616;28;19913;-67
2022/03/27 11:53:32;;;;;;;;;;;15.40;71.80;;;;;;5055274;28;20389;-67
2022/03/27 11:56:10;;;;;;;;;;;15.50;71.80;;;;;;5058158;28;20355;-67
2022/03/27 11:58:36;;;;;;;;;;;15.50;71.60;;;;;;5032269;28;19917;-67
2022/03/27 12:01:03;;;;;;;;;;;15.60;71.70;;;;;;5057087;28;19909;-67
2022/03/27 12:03:28;;;;;;;;;;;15.70;71.60;;;;;;5057084;28;20344;-67
2022/03/27 12:05:54;;;;;;;;;;;15.70;71.60;;;;;;5060611;28;20030;-67
2022/03/27 12:08:19;;;;;;;;;;;15.80;71.70;;;;;;5056786;28;19920;-67
2022/03/27 12:10:49;;;;;;;;;;;15.80;71.60;;;;;;5057174;28;20557;-67
2022/03/27 12:13:15;;;;;;;;;;;15.90;71.50;;;;;;5058635;28;19916;-67
2022/03/27 12:15:49;;;;;;;;;;;15.90;71.60;;;;;;5061559;28;20357;-67
2022/03/27 12:18:25;;;;;;;;;;;15.90;71.20;;;;;;5058926;28;19919;-67
2022/03/27 12:20:50;;;;;;;;;;;16.00;71.40;;;;;;5052661;28;19914;-67
2022/03/27 12:23:17;;;;;;;;;;;16.00;71.40;;;;;;5058577;28;20376;-67
2022/03/27 12:25:43;;;;;;;;;;;16.10;71.50;;;;;;5057842;28;20050;-67
2022/03/27 12:30:53;;;;;;;;;;;16.20;71.90;;;;;;5059043;28;19958;-67
2022/03/27 12:33:27;;;;;;;;;;;16.20;71.50;;;;;;5054653;28;20011;-67
2022/03/27 12:36:13;;;;;;;;;;;16.20;72.00;;;;;;5061065;28;19908;-67
2022/03/27 12:38:39;;;;;;;;;;;16.30;71.80;;;;;;5058401;28;20000;-67
2022/03/27 12:41:06;;;;;;;;;;;16.30;71.80;;;;;;5039727;28;19996;-67
2022/03/27 12:43:32;;;;;;;;;;;16.30;72.20;;;;;;5061640;28;19916;-67
2022/03/27 12:45:58;;;;;;;;;;;16.30;71.60;;;;;;5059509;28;19913;-67
2022/03/27 12:48:27;;;;;;;;;;;16.30;71.50;;;;;;5064641;28;20617;-67
2022/03/27 12:50:53;;;;;;;;;;;16.40;71.90;;;;;;5060829;28;19923;-67
2022/03/27 12:53:20;;;;;;;;;;;16.40;71.70;;;;;;5062806;28;20613;-67
2022/03/27 12:55:47;;;;;;;;;;;16.40;71.90;;;;;;5060934;28;19958;-67
2022/03/27 12:58:17;;;;;;;;;;;16.50;72.20;;;;;;5060661;28;19913;-67
2022/03/27 13:00:43;;;;;;;;;;;16.50;71.70;;;;;;5059856;28;20041;-67
2022/03/27 13:03:10;;;;;;;;;;;16.50;72.00;;;;;;5045721;28;20540;-67
2022/03/27 13:05:35;;;;;;;;;;;16.50;72.10;;;;;;5047196;28;19913;-67
2022/03/27 13:08:01;;;;;;;;;;;16.60;72.30;;;;;;5058533;28;19912;-67
2022/03/27 13:10:27;;;;;;;;;;;16.50;72.00;;;;;;5064582;28;20385;-67
2022/03/27 13:13:05;;;;;;;;;;;16.60;72.00;;;;;;5064271;28;19920;-67
2022/03/27 13:15:37;;;;;;;;;;;16.60;72.20;;;;;;5059253;28;19963;-67
2022/03/27 13:18:04;;;;;;;;;;;16.70;72.40;;;;;;5058776;28;20381;-67
2022/03/27 13:20:30;;;;;;;;;;;16.70;72.50;;;;;;5045318;28;19983;-67
2022/03/27 13:22:56;;;;;;;;;;;16.70;72.40;;;;;;5062901;28;19917;-67
2022/03/27 13:25:21;;;;;;;;;;;16.80;71.80;;;;;;5056732;28;19919;-67
2022/03/27 13:27:47;;;;;;;;;;;16.80;72.00;;;;;;5061904;28;19940;-67
2022/03/27 13:30:13;;;;;;;;;;;16.80;72.10;;;;;;5063398;28;20007;-67
2022/03/27 13:32:38;;;;;;;;;;;16.90;72.30;;;;;;5042868;28;20420;-67
2022/03/27 13:35:04;;;;;;;;;;;16.90;72.10;;;;;;5055862;28;20027;-67
2022/03/27 13:37:30;;;;;;;;;;;16.90;72.30;;;;;;5063659;28;20348;-67
2022/03/27 13:39:55;;;;;;;;;;;16.90;72.10;;;;;;5061389;28;20587;-67
2022/03/27 13:45:05;;;;;;;;;;;17.00;71.80;;;;;;5060519;28;19990;-67
2022/03/27 13:47:30;;;;;;;;;;;17.00;71.80;;;;;;5061309;28;19916;-67
2022/03/27 13:49:56;;;;;;;;;;;17.00;71.80;;;;;;5046410;28;19923;-67
2022/03/27 13:52:22;;;;;;;;;;;17.10;72.00;;;;;;5059388;28;19908;-67
2022/03/27 13:54:47;;;;;;;;;;;17.10;72.00;;;;;;5067391;28;19913;-67
2022/03/27 13:57:13;;;;;;;;;;;17.10;71.80;;;;;;5064092;28;19908;-67
2022/03/27 13:59:38;;;;;;;;;;;17.20;71.90;;;;;;5038875;28;20250;-67
2022/03/27 14:02:05;;;;;;;;;;;17.20;72.00;;;;;;5059036;28;19963;-67
2022/03/27 14:04:30;;;;;;;;;;;17.20;72.00;;;;;;5064102;28;19923;-67
2022/03/27 14:06:56;;;;;;;;;;;17.30;71.90;;;;;;5056692;28;19909;-67
2022/03/27 14:09:21;;;;;;;;;;;17.20;71.80;;;;;;5057800;28;20016;-67
2022/03/27 14:11:47;;;;;;;;;;;17.30;71.50;;;;;;5061264;28;19913;-67
2022/03/27 14:14:13;;;;;;;;;;;17.30;71.80;;;;;;5062531;28;19974;-67
2022/03/27 14:16:40;;;;;;;;;;;17.30;71.90;;;;;;5057635;28;20343;-67
2022/03/27 14:19:07;;;;;;;;;;;17.30;72.00;;;;;;5040543;28;19915;-67
2022/03/27 14:21:33;;;;;;;;;;;17.30;71.80;;;;;;5046891;28;19966;-67
2022/03/27 14:23:58;;;;;;;;;;;17.40;72.10;;;;;;5062064;28;19917;-67
2022/03/27 14:26:24;;;;;;;;;;;17.40;71.70;;;;;;5053764;28;19915;-67
2022/03/27 14:28:50;;;;;;;;;;;17.40;71.60;;;;;;5059026;28;19919;-67